createdAt,value
2023-04-27T00:01:44.823Z,100054.69
2023-04-27T00:04:14.429Z,100059.06
2023-04-27T00:06:42.864Z,100066.88
2023-04-27T00:09:10.273Z,100059.06
2023-04-27T00:11:38.025Z,100063.38
2023-04-27T00:14:05.761Z,100061.66
2023-04-27T00:16:33.244Z,100069.53
2023-04-27T00:19:01.009Z,100058.34
2023-04-27T00:21:28.528Z,100068.72
2023-04-27T00:23:56.513Z,100071.34
2023-04-27T00:26:24.255Z,100064.41
2023-04-27T00:28:51.884Z,100067.09
2023-04-27T00:31:19.285Z,100058.47
2023-04-27T00:33:46.976Z,100064.47
2023-04-27T00:36:16.696Z,100061.91
2023-04-27T00:38:44.148Z,100064.53
2023-04-27T00:41:11.877Z,100059.28
2023-04-27T00:43:44.331Z,100059.25
2023-04-27T00:46:13.314Z,100064.41
2023-04-27T00:48:41.893Z,100062.62
2023-04-27T00:51:10.601Z,100061.66
2023-04-27T00:53:38.798Z,100059.88
2023-04-27T00:56:07.118Z,100066.75
2023-04-27T00:58:34.773Z,100059.69
2023-04-27T01:01:03.776Z,100057.87
2023-04-27T01:03:31.588Z,100062.16
2023-04-27T01:06:01.800Z,100063.78
2023-04-27T01:08:29.877Z,100056.94
2023-04-27T01:10:57.520Z,100059.56
2023-04-27T01:13:25.013Z,100050.00
2023-04-27T01:15:52.730Z,100046.50
2023-04-27T01:18:20.102Z,100055.00
2023-04-27T01:20:47.913Z,100059.22
2023-04-27T01:23:17.346Z,100064.44
2023-04-27T01:25:45.064Z,100065.09
2023-04-27T01:28:12.792Z,100063.41
2023-04-27T01:30:40.563Z,100067.72
2023-04-27T01:33:08.003Z,100069.53
2023-04-27T01:35:35.515Z,100070.38
2023-04-27T01:38:03.290Z,100067.72
2023-04-27T01:40:30.828Z,100076.47
2023-04-27T01:42:58.277Z,100079.84
2023-04-27T01:45:26.205Z,100081.63
2023-04-27T01:47:53.854Z,100087.63
2023-04-27T01:50:21.581Z,100083.84
2023-04-27T01:52:49.367Z,100088.37
2023-04-27T01:55:16.886Z,100090.94
2023-04-27T01:57:44.362Z,100080.47
2023-04-27T02:00:12.804Z,100102.94
2023-04-27T02:02:48.054Z,100088.19
2023-04-27T02:05:15.908Z,100079.53
2023-04-27T02:07:43.314Z,100092.38
2023-04-27T02:10:10.992Z,100088.66
2023-04-27T02:12:38.624Z,100098.06
2023-04-27T02:15:08.691Z,100090.38
2023-04-27T02:17:36.490Z,100100.72
2023-04-27T02:20:06.767Z,100096.59
2023-04-27T02:22:34.237Z,100103.50
2023-04-27T02:25:03.027Z,100097.34
2023-04-27T02:27:30.535Z,100104.81
2023-04-27T02:29:58.574Z,100105.72
2023-04-27T02:32:27.192Z,100106.66
2023-04-27T02:34:55.384Z,100110.09
2023-04-27T02:37:22.914Z,100112.75
2023-04-27T02:39:50.635Z,100125.53
2023-04-27T02:42:18.495Z,100118.06
2023-04-27T02:44:46.193Z,100129.22
2023-04-27T02:47:14.026Z,100128.25
2023-04-27T02:49:43.604Z,100134.28
2023-04-27T02:52:11.016Z,100123.91
2023-04-27T02:54:39.345Z,100129.16
2023-04-27T02:57:07.150Z,100128.87
2023-04-27T02:59:34.591Z,100126.22
2023-04-27T03:02:02.022Z,100131.50
2023-04-27T03:04:30.028Z,100140.22
2023-04-27T03:06:57.444Z,100136.72
2023-04-27T03:09:25.146Z,100142.53
2023-04-27T03:11:52.879Z,100140.81
2023-04-27T03:14:21.263Z,100141.56
2023-04-27T03:16:48.959Z,100147.69
2023-04-27T03:19:16.667Z,100139.81
2023-04-27T03:21:44.409Z,100148.38
2023-04-27T03:24:11.766Z,100146.75
2023-04-27T03:26:39.457Z,100152.72
2023-04-27T03:29:06.887Z,100151.72
2023-04-27T03:31:34.532Z,100147.94
2023-04-27T03:34:02.303Z,100146.47
2023-04-27T03:36:30.047Z,100142.13
2023-04-27T03:38:57.540Z,100151.34
2023-04-27T03:41:25.681Z,100155.03
2023-04-27T03:43:53.540Z,100155.25
2023-04-27T03:46:21.295Z,100163.81
2023-04-27T03:48:49.409Z,100167.09
2023-04-27T03:51:18.296Z,100161.41
2023-04-27T03:53:46.388Z,100170.88
2023-04-27T03:56:14.430Z,100169.91
2023-04-27T03:58:41.999Z,100171.66
2023-04-27T04:01:11.592Z,100170.78
2023-04-27T04:03:39.475Z,100171.81
2023-04-27T04:06:07.324Z,100179.75
2023-04-27T04:08:34.834Z,100174.47
2023-04-27T04:11:02.735Z,100182.94
2023-04-27T04:13:30.336Z,100177.97
2023-04-27T04:16:05.022Z,100176.47
2023-04-27T04:18:33.826Z,100181.66
2023-04-27T04:21:02.216Z,100190.50
2023-04-27T04:23:29.669Z,100186.06
2023-04-27T04:25:58.146Z,100188.03
2023-04-27T04:28:25.848Z,100197.44
2023-04-27T04:30:53.318Z,100199.47
2023-04-27T04:33:21.474Z,100188.81
2023-04-27T04:35:49.442Z,100194.41
2023-04-27T04:38:16.879Z,100194.28
2023-04-27T04:40:45.967Z,100203.13
2023-04-27T04:43:13.691Z,100193.75
2023-04-27T04:45:42.738Z,100196.31
2023-04-27T04:48:14.638Z,100195.66
2023-04-27T04:50:42.201Z,100197.47
2023-04-27T04:53:09.999Z,100199.19
2023-04-27T04:55:37.568Z,100203.59
2023-04-27T04:58:05.291Z,100200.13
2023-04-27T05:00:32.949Z,100201.88
2023-04-27T05:03:01.665Z,100208.94
2023-04-27T05:05:29.230Z,100201.22
2023-04-27T05:07:57.041Z,100197.22
2023-04-27T05:10:24.505Z,100203.97
2023-04-27T05:12:51.894Z,100207.47
2023-04-27T05:15:19.917Z,100198.09
2023-04-27T05:17:47.322Z,100206.91
2023-04-27T05:20:15.873Z,100215.72
2023-04-27T05:22:43.790Z,100208.94
2023-04-27T05:25:11.368Z,100214.47
2023-04-27T05:27:38.726Z,100216.09
2023-04-27T05:30:07.905Z,100222.22
2023-04-27T05:32:37.408Z,100220.47
2023-04-27T05:35:05.621Z,100222.41
2023-04-27T05:37:33.325Z,100221.66
2023-04-27T05:40:00.786Z,100217.59
2023-04-27T05:42:28.205Z,100221.91
2023-04-27T05:44:56.027Z,100227.34
2023-04-27T05:47:23.721Z,100224.81
2023-04-27T05:49:54.499Z,100222.16
2023-04-27T05:52:22.318Z,100237.06
2023-04-27T05:54:50.820Z,100237.09
2023-04-27T05:57:18.491Z,100241.50
2023-04-27T05:59:46.261Z,100236.38
2023-04-27T06:02:13.746Z,100247.69
2023-04-27T06:04:41.483Z,100243.34
2023-04-27T06:07:10.391Z,100242.47
2023-04-27T06:09:38.360Z,100245.97
2023-04-27T06:12:07.244Z,100248.59
2023-04-27T06:14:37.225Z,100251.19
2023-04-27T06:17:04.909Z,100249.41
2023-04-27T06:19:32.616Z,100251.16
2023-04-27T06:21:59.991Z,100247.66
2023-04-27T06:24:28.609Z,100252.00
2023-04-27T06:26:56.953Z,100254.56
2023-04-27T06:29:24.350Z,100252.75
2023-04-27T06:31:51.872Z,100243.81
2023-04-27T06:34:19.817Z,100246.25
2023-04-27T06:36:47.252Z,100244.50
2023-04-27T06:39:14.889Z,100247.00
2023-04-27T06:41:42.782Z,100226.72
2023-04-27T06:44:13.146Z,100235.91
2023-04-27T06:46:40.554Z,100239.12
2023-04-27T06:49:08.286Z,100233.69
2023-04-27T06:51:35.770Z,100257.97
2023-04-27T06:54:03.865Z,100251.53
2023-04-27T06:56:31.730Z,100250.44
2023-04-27T06:58:59.541Z,100253.16
2023-04-27T07:01:26.990Z,100252.72
2023-04-27T07:03:54.960Z,100249.94
2023-04-27T07:06:22.745Z,100260.28
2023-04-27T07:08:50.098Z,100249.00
2023-04-27T07:11:17.902Z,100244.03
2023-04-27T07:13:45.554Z,100247.72
2023-04-27T07:16:13.277Z,100252.19
2023-04-27T07:18:43.185Z,100251.59
2023-04-27T07:21:11.399Z,100250.13
2023-04-27T07:23:40.842Z,100254.53
2023-04-27T07:26:09.737Z,100253.22
2023-04-27T07:28:38.215Z,100247.91
2023-04-27T07:31:06.363Z,100254.22
2023-04-27T07:33:34.587Z,100257.78
2023-04-27T07:36:02.699Z,100253.25
2023-04-27T07:38:31.214Z,100253.72
2023-04-27T07:41:01.776Z,100252.16
2023-04-27T07:43:29.783Z,100246.75
2023-04-27T07:45:58.419Z,100254.28
2023-04-27T07:48:26.360Z,100255.28
2023-04-27T07:50:53.887Z,100252.59
2023-04-27T07:53:21.339Z,100252.00
2023-04-27T07:55:49.006Z,100256.34
2023-04-27T07:58:16.444Z,100251.00
2023-04-27T08:00:43.946Z,100246.50
2023-04-27T08:03:11.895Z,100255.69
2023-04-27T08:05:39.839Z,100261.16
2023-04-27T08:08:08.052Z,100265.00
2023-04-27T08:10:37.113Z,100254.84
2023-04-27T08:13:04.491Z,100246.97
2023-04-27T08:15:32.009Z,100244.66
2023-04-27T08:17:59.868Z,100252.84
2023-04-27T08:20:30.747Z,100260.09
2023-04-27T08:22:58.228Z,100263.97
2023-04-27T08:25:26.357Z,100262.41
2023-04-27T08:27:53.778Z,100258.84
2023-04-27T08:30:21.292Z,100269.53
2023-04-27T08:32:49.664Z,100268.09
2023-04-27T08:35:17.706Z,100261.97
2023-04-27T08:37:45.137Z,100263.00
2023-04-27T08:40:13.388Z,100265.81
2023-04-27T08:42:52.464Z,100273.25
2023-04-27T08:45:24.418Z,100263.50
2023-04-27T08:47:52.430Z,100258.44
2023-04-27T08:50:21.490Z,100257.56
2023-04-27T08:52:50.734Z,100260.53
2023-04-27T08:55:18.166Z,100255.41
2023-04-27T08:57:58.673Z,100257.81
2023-04-27T09:00:26.869Z,100247.56
2023-04-27T09:02:54.873Z,100245.41
2023-04-27T09:05:23.762Z,100237.37
2023-04-27T09:08:05.449Z,100224.75
2023-04-27T09:10:52.460Z,100239.03
2023-04-27T09:13:19.913Z,100235.44
2023-04-27T09:15:52.243Z,100231.91
2023-04-27T09:18:23.526Z,100236.47
2023-04-27T09:20:52.346Z,100230.94
2023-04-27T09:23:26.428Z,100237.66
2023-04-27T09:25:56.515Z,100231.38
2023-04-27T09:28:26.086Z,100224.09
2023-04-27T09:30:55.714Z,100218.47
2023-04-27T09:33:27.727Z,100223.34
2023-04-27T09:35:57.205Z,100218.88
2023-04-27T09:38:24.771Z,100225.44
2023-04-27T09:40:53.579Z,100222.59
2023-04-27T09:43:22.001Z,100217.88
2023-04-27T09:45:50.222Z,100216.03
2023-04-27T09:48:18.550Z,100219.44
2023-04-27T09:50:46.858Z,100217.00
2023-04-27T09:53:18.748Z,100228.91
2023-04-27T09:55:50.548Z,100207.78
2023-04-27T09:58:45.237Z,100212.50
2023-04-27T10:01:42.616Z,100218.22
2023-04-27T10:05:04.865Z,100207.44
2023-04-27T10:07:33.188Z,100197.41
2023-04-27T10:10:02.695Z,100202.09
2023-04-27T10:12:36.607Z,100196.34
2023-04-27T10:15:15.374Z,100190.47
2023-04-27T10:17:50.316Z,100200.66
2023-04-27T10:20:29.071Z,100192.41
2023-04-27T10:22:56.675Z,100186.69
2023-04-27T10:25:40.762Z,100191.09
2023-04-27T10:28:09.496Z,100196.19
2023-04-27T10:30:39.279Z,100188.75
2023-04-27T10:33:11.850Z,100186.31
2023-04-27T10:35:41.099Z,100192.50
2023-04-27T10:38:19.220Z,100186.69
2023-04-27T10:40:55.981Z,100192.72
2023-04-27T10:43:28.754Z,100195.38
2023-04-27T10:46:11.749Z,100192.91
2023-04-27T10:48:39.834Z,100196.91
2023-04-27T10:51:07.699Z,100192.78
2023-04-27T10:53:37.318Z,100188.00
2023-04-27T10:56:06.992Z,100194.50
2023-04-27T10:58:48.107Z,100191.72
2023-04-27T11:01:26.951Z,100196.84
2023-04-27T11:03:58.982Z,100197.91
2023-04-27T11:06:28.127Z,100192.47
2023-04-27T11:08:56.622Z,100192.44
2023-04-27T11:11:24.319Z,100182.94
2023-04-27T11:13:55.792Z,100187.53
2023-04-27T11:16:24.050Z,100192.28
2023-04-27T11:18:51.551Z,100193.28
2023-04-27T11:21:20.565Z,100182.44
2023-04-27T11:23:48.264Z,100190.50
2023-04-27T11:26:20.089Z,100180.53
2023-04-27T11:28:59.772Z,100181.53
2023-04-27T11:31:28.271Z,100187.72
2023-04-27T11:33:56.266Z,100180.09
2023-04-27T11:36:24.396Z,100186.28
2023-04-27T11:38:57.854Z,100186.06
2023-04-27T11:41:36.234Z,100189.28
2023-04-27T11:44:08.364Z,100184.09
2023-04-27T11:46:36.866Z,100196.19
2023-04-27T11:49:05.593Z,100190.41
2023-04-27T11:51:33.535Z,100187.31
2023-04-27T11:54:05.996Z,100180.34
2023-04-27T11:56:41.480Z,100189.59
2023-04-27T11:59:27.613Z,100184.56
2023-04-27T12:01:55.043Z,100192.78
2023-04-27T12:04:23.001Z,100188.94
2023-04-27T12:06:51.110Z,100195.47
2023-04-27T12:09:22.567Z,100177.72
2023-04-27T12:11:50.324Z,100180.94
2023-04-27T12:14:19.859Z,100187.84
2023-04-27T12:16:47.340Z,100184.94
2023-04-27T12:19:15.065Z,100181.31
2023-04-27T12:21:42.785Z,100180.69
2023-04-27T12:24:10.449Z,100179.44
2023-04-27T12:26:38.563Z,100172.72
2023-04-27T12:29:07.224Z,100182.25
2023-04-27T12:31:34.782Z,100181.16
2023-04-27T12:34:02.529Z,100173.72
2023-04-27T12:36:29.972Z,100170.22
2023-04-27T12:39:13.708Z,100173.47
2023-04-27T12:41:43.512Z,100174.62
2023-04-27T12:44:12.902Z,100171.97
2023-04-27T12:46:41.627Z,100180.19
2023-04-27T12:49:09.992Z,100176.97
2023-04-27T12:51:37.627Z,100176.84
2023-04-27T12:54:06.599Z,100179.03
2023-04-27T12:56:34.140Z,100178.63
2023-04-27T12:59:01.647Z,100179.41
2023-04-27T13:01:30.274Z,100170.38
2023-04-27T13:04:07.280Z,100179.87
2023-04-27T13:06:35.141Z,100172.81
2023-04-27T13:09:02.776Z,100169.44
2023-04-27T13:11:30.251Z,100166.88
2023-04-27T13:13:59.027Z,100168.50
2023-04-27T13:16:26.542Z,100177.31
2023-04-27T13:18:55.459Z,100188.09
2023-04-27T13:21:23.316Z,100178.31
2023-04-27T13:23:53.620Z,100172.16
2023-04-27T13:26:21.170Z,100176.97
2023-04-27T13:28:49.782Z,100170.16
2023-04-27T13:31:17.311Z,100172.16
2023-04-27T13:33:45.151Z,100175.53
2023-04-27T13:36:13.424Z,100174.50
2023-04-27T13:38:41.083Z,100169.81
2023-04-27T13:41:08.765Z,100165.00
2023-04-27T13:43:36.562Z,100176.88
2023-04-27T13:46:03.983Z,100169.09
2023-04-27T13:48:31.968Z,100165.91
2023-04-27T13:50:59.660Z,100156.00
2023-04-27T13:53:27.267Z,100166.31
2023-04-27T13:55:56.016Z,100175.03
2023-04-27T13:58:26.109Z,100172.91
2023-04-27T14:00:54.152Z,100171.91
2023-04-27T14:03:22.849Z,100161.56
2023-04-27T14:05:53.573Z,100157.31
2023-04-27T14:08:21.729Z,100156.13
2023-04-27T14:10:49.647Z,100168.22
2023-04-27T14:13:18.401Z,100170.09
2023-04-27T14:15:46.747Z,100169.44
2023-04-27T14:18:14.521Z,100169.97
2023-04-27T14:20:42.337Z,100178.91
2023-04-27T14:23:10.830Z,100172.22
2023-04-27T14:25:39.188Z,100175.34
2023-04-27T14:28:06.730Z,100183.50
2023-04-27T14:30:35.434Z,100173.50
2023-04-27T14:33:03.389Z,100177.78
2023-04-27T14:35:34.105Z,100178.00
2023-04-27T14:38:04.377Z,100184.09
2023-04-27T14:40:32.459Z,100185.09
2023-04-27T14:42:59.868Z,100189.25
2023-04-27T14:45:33.565Z,100181.34
2023-04-27T14:48:07.781Z,100170.56
2023-04-27T14:50:36.006Z,100186.81
2023-04-27T14:53:03.445Z,100180.81
2023-04-27T14:55:31.528Z,100186.97
2023-04-27T14:57:58.895Z,100180.00
2023-04-27T15:00:26.368Z,100182.63
2023-04-27T15:02:54.945Z,100179.87
2023-04-27T15:05:22.693Z,100186.44
2023-04-27T15:07:50.447Z,100183.56
2023-04-27T15:10:18.276Z,100182.50
2023-04-27T15:12:45.984Z,100178.34
2023-04-27T15:15:13.543Z,100188.25
2023-04-27T15:17:41.742Z,100183.63
2023-04-27T15:20:10.741Z,100181.28
2023-04-27T15:22:38.179Z,100181.81
2023-04-27T15:25:06.293Z,100180.88
2023-04-27T15:27:33.740Z,100182.87
2023-04-27T15:30:03.772Z,100182.25
2023-04-27T15:32:31.900Z,100184.97
2023-04-27T15:34:59.503Z,100182.91
2023-04-27T15:37:28.178Z,100185.44
2023-04-27T15:39:56.222Z,100179.56
2023-04-27T15:42:24.285Z,100177.81
2023-04-27T15:44:51.898Z,100185.56
2023-04-27T15:47:19.647Z,100183.63
2023-04-27T15:49:56.982Z,100180.66
2023-04-27T15:52:26.962Z,100176.28
2023-04-27T15:54:54.997Z,100174.25
2023-04-27T15:57:22.463Z,100176.09
2023-04-27T15:59:50.181Z,100180.41
2023-04-27T16:02:18.405Z,100183.50
2023-04-27T16:04:46.154Z,100178.91
2023-04-27T16:07:13.562Z,100188.63
2023-04-27T16:09:41.116Z,100181.09
2023-04-27T16:12:08.883Z,100180.97
2023-04-27T16:14:36.300Z,100189.37
2023-04-27T16:17:03.938Z,100181.47
2023-04-27T16:19:31.733Z,100184.69
2023-04-27T16:22:01.240Z,100187.47
2023-04-27T16:24:29.584Z,100185.13
2023-04-27T16:26:57.587Z,100188.41
2023-04-27T16:29:25.045Z,100188.75
2023-04-27T16:31:53.330Z,100185.38
2023-04-27T16:34:21.114Z,100188.66
2023-04-27T16:36:49.831Z,100194.09
2023-04-27T16:39:19.231Z,100201.38
2023-04-27T16:41:47.946Z,100202.66
2023-04-27T16:44:15.798Z,100198.84
2023-04-27T16:46:43.395Z,100190.03
2023-04-27T16:49:11.204Z,100196.22
2023-04-27T16:51:38.679Z,100197.84
2023-04-27T16:54:06.078Z,100201.25
2023-04-27T16:56:35.442Z,100200.97
2023-04-27T16:59:04.937Z,100212.03
2023-04-27T17:01:32.455Z,100210.41
2023-04-27T17:04:02.295Z,100217.69
2023-04-27T17:06:30.250Z,100219.91
2023-04-27T17:08:58.048Z,100214.59
2023-04-27T17:11:26.462Z,100211.22
2023-04-27T17:13:54.338Z,100223.50
2023-04-27T17:16:22.079Z,100218.16
2023-04-27T17:18:50.005Z,100220.00
2023-04-27T17:21:17.536Z,100221.81
2023-04-27T17:23:50.528Z,100225.97
2023-04-27T17:26:21.317Z,100215.47
2023-04-27T17:28:49.274Z,100223.25
2023-04-27T17:31:17.683Z,100230.34
2023-04-27T17:33:45.857Z,100224.34
2023-04-27T17:36:14.914Z,100226.31
2023-04-27T17:38:42.440Z,100235.09
2023-04-27T17:41:10.219Z,100233.66
2023-04-27T17:43:38.058Z,100241.59
2023-04-27T17:46:09.792Z,100234.53
2023-04-27T17:48:37.928Z,100243.19
2023-04-27T17:51:05.445Z,100244.03
2023-04-27T17:53:33.152Z,100244.94
2023-04-27T17:56:00.851Z,100246.81
2023-04-27T17:58:28.256Z,100250.37
2023-04-27T18:00:55.714Z,100256.53
2023-04-27T18:03:23.715Z,100255.62
2023-04-27T18:05:51.640Z,100259.25
2023-04-27T18:08:19.058Z,100261.97
2023-04-27T18:10:46.790Z,100261.25
2023-04-27T18:13:14.165Z,100259.88
2023-04-27T18:15:41.721Z,100262.53
2023-04-27T18:18:10.938Z,100263.38
2023-04-27T18:20:38.479Z,100270.34
2023-04-27T18:23:06.033Z,100271.25
2023-04-27T18:25:33.856Z,100265.31
2023-04-27T18:28:01.564Z,100275.84
2023-04-27T18:30:30.918Z,100270.00
2023-04-27T18:32:58.679Z,100285.66
2023-04-27T18:35:26.142Z,100285.75
2023-04-27T18:37:53.544Z,100288.47
2023-04-27T18:40:22.419Z,100286.03
2023-04-27T18:42:53.553Z,100290.44
2023-04-27T18:45:21.594Z,100301.78
2023-04-27T18:47:49.077Z,100300.09
2023-04-27T18:50:17.428Z,100308.88
2023-04-27T18:52:45.614Z,100311.50
2023-04-27T18:55:14.216Z,100308.88
2023-04-27T18:57:41.886Z,100315.09
2023-04-27T19:00:11.804Z,100315.06
2023-04-27T19:02:39.638Z,100320.38
2023-04-27T19:05:12.868Z,100315.19
2023-04-27T19:07:41.261Z,100317.81
2023-04-27T19:10:09.352Z,100320.47
2023-04-27T19:12:36.796Z,100329.31
2023-04-27T19:15:04.882Z,100331.94
2023-04-27T19:17:32.536Z,100325.88
2023-04-27T19:20:00.015Z,100333.75
2023-04-27T19:22:29.277Z,100330.25
2023-04-27T19:24:56.710Z,100337.22
2023-04-27T19:27:24.383Z,100350.31
2023-04-27T19:29:54.510Z,100345.06
2023-04-27T19:32:25.137Z,100346.78
2023-04-27T19:34:56.525Z,100348.56
2023-04-27T19:37:25.050Z,100352.91
2023-04-27T19:39:53.339Z,100345.97
2023-04-27T19:42:20.880Z,100353.78
2023-04-27T19:44:48.328Z,100351.19
2023-04-27T19:47:16.179Z,100336.38
2023-04-27T19:49:43.685Z,100348.59
2023-04-27T19:52:11.327Z,100347.62
2023-04-27T19:55:00.292Z,100353.78
2023-04-27T19:57:28.881Z,100341.63
2023-04-27T19:59:57.139Z,100352.06
2023-04-27T20:02:24.999Z,100352.06
2023-04-27T20:04:52.968Z,100352.03
2023-04-27T20:07:21.039Z,100349.44
2023-04-27T20:09:48.514Z,100346.84
2023-04-27T20:12:35.253Z,100348.53
2023-04-27T20:15:05.306Z,100346.78
2023-04-27T20:17:33.307Z,100338.06
2023-04-27T20:20:01.274Z,100339.78
2023-04-27T20:22:28.701Z,100344.97
2023-04-27T20:24:59.169Z,100337.19
2023-04-27T20:27:26.735Z,100351.94
2023-04-27T20:29:54.151Z,100345.87
2023-04-27T20:32:21.930Z,100355.41
2023-04-27T20:34:49.353Z,100347.56
2023-04-27T20:37:19.571Z,100355.37
2023-04-27T20:39:47.538Z,100347.44
2023-04-27T20:42:14.986Z,100349.19
2023-04-27T20:44:42.469Z,100351.81
2023-04-27T20:47:10.162Z,100358.69
2023-04-27T20:49:37.602Z,100356.94
2023-04-27T20:52:05.082Z,100355.22
2023-04-27T20:54:32.978Z,100356.06
2023-04-27T20:57:08.425Z,100362.84
2023-04-27T20:59:36.262Z,100367.22
2023-04-27T21:02:03.756Z,100362.84
2023-04-27T21:04:31.301Z,100365.41
2023-04-27T21:06:59.177Z,100359.25
2023-04-27T21:09:26.584Z,100364.53
2023-04-27T21:11:54.221Z,100365.47
2023-04-27T21:14:21.995Z,100368.81
2023-04-27T21:16:49.588Z,100361.81
2023-04-27T21:19:17.564Z,100368.81
2023-04-27T21:21:45.325Z,100374.81
2023-04-27T21:24:12.792Z,100362.56
2023-04-27T21:26:40.255Z,100373.03
2023-04-27T21:29:08.389Z,100373.00
2023-04-27T21:31:36.228Z,100383.50
2023-04-27T21:34:03.935Z,100387.72
2023-04-27T21:36:32.412Z,100385.94
2023-04-27T21:38:59.815Z,100391.16
2023-04-27T21:41:27.569Z,100384.22
2023-04-27T21:43:55.434Z,100381.59
2023-04-27T21:46:24.038Z,100389.37
2023-04-27T21:48:51.638Z,100397.19
2023-04-27T21:51:19.468Z,100391.94
2023-04-27T21:53:47.093Z,100394.56
2023-04-27T21:56:14.568Z,100391.72
2023-04-27T21:58:42.277Z,100402.19
2023-04-27T22:01:11.189Z,100397.03
2023-04-27T22:03:39.341Z,100397.09
2023-04-27T22:06:07.541Z,100397.84
2023-04-27T22:08:35.316Z,100402.25
2023-04-27T22:11:03.038Z,100395.25
2023-04-27T22:13:30.585Z,100397.00
2023-04-27T22:15:58.095Z,100397.84
2023-04-27T22:18:25.905Z,100401.31
2023-04-27T22:20:54.901Z,100407.28
2023-04-27T22:23:22.298Z,100401.31
2023-04-27T22:25:49.964Z,100408.12
2023-04-27T22:28:17.430Z,100411.47
2023-04-27T22:30:44.864Z,100412.41
2023-04-27T22:33:24.723Z,100408.12
2023-04-27T22:35:52.098Z,100418.44
2023-04-27T22:38:19.773Z,100413.13
2023-04-27T22:40:47.286Z,100416.66
2023-04-27T22:43:14.806Z,100423.34
2023-04-27T22:45:42.522Z,100423.34
2023-04-27T22:48:10.078Z,100426.09
2023-04-27T22:50:37.800Z,100428.75
2023-04-27T22:53:05.497Z,100427.81
2023-04-27T22:55:32.877Z,100424.25
2023-04-27T22:58:00.540Z,100419.81
2023-04-27T23:00:28.287Z,100430.78
2023-04-27T23:02:55.921Z,100428.16
2023-04-27T23:05:23.687Z,100434.22
2023-04-27T23:07:51.772Z,100418.62
2023-04-27T23:10:19.371Z,100422.12
2023-04-27T23:12:56.961Z,100435.03
2023-04-27T23:15:24.658Z,100427.22
2023-04-27T23:17:52.097Z,100434.03
2023-04-27T23:20:27.916Z,100431.44
2023-04-27T23:22:57.036Z,100431.44
2023-04-27T23:25:24.588Z,100420.19
2023-04-27T23:27:52.902Z,100430.47
2023-04-27T23:30:22.030Z,100434.75
2023-04-27T23:32:49.505Z,100426.16
2023-04-27T23:35:16.952Z,100429.63
2023-04-27T23:37:44.950Z,100436.41
2023-04-27T23:40:12.815Z,100426.16
2023-04-27T23:42:40.212Z,100427.09
2023-04-27T23:45:08.443Z,100415.53
2023-04-27T23:47:35.896Z,100420.06
2023-04-27T23:50:03.910Z,100425.16
2023-04-27T23:52:32.110Z,100418.94
2023-04-27T23:54:59.654Z,100423.31
2023-04-27T23:57:27.039Z,100425.94
2023-04-27T23:59:54.696Z,100426.59
